Time;durP1;ratioP1;P1;durP2;ratioP2;P2;SDS_P1;SDS_P2;PMS_P1;PMS_P2;Temp;Humidity;BMP_temperature;BMP_pressure;BME280_temperature;BME280_humidity;BME280_pressure;Samples;Min_cycle;Max_cycle;Signal;HPM_P1;HPM_P2
2020/12/10 00:01:01;;;;;;;41.87;26.10;;;-1.10;99.90;;;;;;4966824;28;20459;-73
2020/12/10 00:03:27;;;;;;;35.97;25.60;;;-1.10;99.90;;;;;;4965087;28;20549;-74
2020/12/10 00:05:55;;;;;;;33.60;24.40;;;-1.10;99.90;;;;;;4967280;28;21024;-73
2020/12/10 00:08:22;;;;;;;34.17;24.90;;;-1.20;99.90;;;;;;4967518;28;20881;-74
2020/12/10 00:10:48;;;;;;;39.20;24.63;;;-1.20;99.90;;;;;;4969574;28;20642;-74
2020/12/10 00:13:15;;;;;;;33.07;24.57;;;-1.20;99.90;;;;;;4966814;28;20481;-74
2020/12/10 00:15:42;;;;;;;44.07;24.10;;;-1.10;99.90;;;;;;4967054;28;20495;-74
2020/12/10 00:18:09;;;;;;;39.90;24.37;;;-1.10;99.90;;;;;;4967674;28;20473;-74
2020/12/10 00:20:36;;;;;;;37.83;26.77;;;-1.10;99.90;;;;;;4962882;28;20563;-73
2020/12/10 00:23:04;;;;;;;45.30;25.57;;;-1.00;99.90;;;;;;4967050;28;20478;-72
2020/12/10 00:25:31;;;;;;;48.23;26.80;;;-1.00;99.90;;;;;;4967718;28;20549;-73
2020/12/10 00:27:57;;;;;;;38.70;24.03;;;-1.00;99.90;;;;;;4966991;28;20490;-74
2020/12/10 00:30:23;;;;;;;38.97;25.77;;;-0.90;99.90;;;;;;4967998;28;20473;-73
2020/12/10 00:32:50;;;;;;;40.30;25.13;;;-0.90;99.90;;;;;;4966922;28;20489;-74
2020/12/10 00:35:17;;;;;;;43.80;24.20;;;-0.90;99.90;;;;;;4965494;28;20709;-73
2020/12/10 00:37:44;;;;;;;36.30;25.13;;;-0.90;99.90;;;;;;4967739;28;20492;-74
2020/12/10 00:40:12;;;;;;;30.67;22.00;;;-0.90;99.90;;;;;;4955718;28;20563;-73
2020/12/10 00:42:38;;;;;;;32.37;23.50;;;-0.90;99.90;;;;;;4964547;28;20969;-73
2020/12/10 00:45:05;;;;;;;32.93;23.43;;;-0.90;99.90;;;;;;4966566;28;20483;-73
2020/12/10 00:47:31;;;;;;;41.83;26.13;;;-1.00;99.90;;;;;;4966156;28;20471;-74
2020/12/10 00:49:58;;;;;;;36.17;24.07;;;-1.00;99.90;;;;;;4967013;28;20826;-74
2020/12/10 00:52:25;;;;;;;43.67;25.53;;;-1.10;99.90;;;;;;4966874;28;20830;-73
2020/12/10 00:54:52;;;;;;;39.70;24.13;;;-1.20;99.90;;;;;;4967510;28;20551;-73
2020/12/10 00:57:19;;;;;;;45.13;24.50;;;-1.20;99.90;;;;;;4966519;28;20471;-74
2020/12/10 00:59:46;;;;;;;34.97;25.20;;;-1.20;99.90;;;;;;4966605;28;20459;-74
2020/12/10 01:02:13;;;;;;;37.87;24.33;;;-1.20;99.90;;;;;;4963892;28;20468;-74
2020/12/10 01:04:39;;;;;;;33.27;23.40;;;-1.20;99.90;;;;;;4967094;28;21057;-74
2020/12/10 01:07:06;;;;;;;38.30;24.77;;;-1.20;99.90;;;;;;4966231;28;20551;-73
2020/12/10 01:09:33;;;;;;;28.23;23.37;;;-1.20;99.90;;;;;;4967396;28;20494;-74
2020/12/10 01:12:04;;;;;;;33.23;23.40;;;-1.20;99.90;;;;;;4966503;28;20473;-73
2020/12/10 01:14:31;;;;;;;35.07;22.60;;;-1.10;99.90;;;;;;4965724;28;20479;-73
2020/12/10 01:16:58;;;;;;;38.57;22.10;;;-1.10;99.90;;;;;;4966301;28;20467;-73
2020/12/10 01:19:25;;;;;;;41.00;22.90;;;-1.00;99.90;;;;;;4963076;28;21549;-74
2020/12/10 01:21:51;;;;;;;27.90;21.43;;;-1.10;99.90;;;;;;4964430;28;20459;-73
2020/12/10 01:24:18;;;;;;;36.20;22.23;;;-1.10;99.90;;;;;;4963383;28;20471;-73
2020/12/10 01:26:45;;;;;;;31.53;21.63;;;-1.10;99.90;;;;;;4965976;28;20482;-74
2020/12/10 01:29:11;;;;;;;34.73;22.20;;;-1.10;99.90;;;;;;4963137;28;20488;-73
2020/12/10 01:31:38;;;;;;;40.80;24.10;;;-1.10;99.90;;;;;;4967274;28;20515;-74
2020/12/10 01:34:05;;;;;;;32.60;21.90;;;-1.10;99.90;;;;;;4966666;28;20490;-73
2020/12/10 01:36:32;;;;;;;36.67;21.13;;;-1.00;99.90;;;;;;4965550;28;20495;-72
2020/12/10 01:38:59;;;;;;;34.17;22.73;;;-1.00;99.90;;;;;;4966408;28;20463;-74
2020/12/10 01:41:29;;;;;;;26.47;19.40;;;-1.00;99.90;;;;;;4965925;28;20467;-73
2020/12/10 01:44:01;;;;;;;25.63;19.30;;;-0.90;99.90;;;;;;4960131;28;20495;-73
2020/12/10 01:46:28;;;;;;;31.07;20.10;;;-0.90;99.90;;;;;;4962238;28;20459;-74
2020/12/10 01:48:55;;;;;;;31.40;21.43;;;-0.90;99.90;;;;;;4966852;28;20926;-74
2020/12/10 01:51:22;;;;;;;35.37;21.60;;;-0.90;99.90;;;;;;4965449;28;20466;-73
2020/12/10 01:53:50;;;;;;;30.60;21.27;;;-0.90;99.90;;;;;;4965773;28;20492;-74
2020/12/10 01:56:16;;;;;;;30.57;20.73;;;-1.00;99.90;;;;;;4965408;28;20475;-74
2020/12/10 01:58:43;;;;;;;32.97;21.97;;;-1.10;99.90;;;;;;4966356;28;20464;-73
2020/12/10 02:01:09;;;;;;;38.03;22.47;;;-1.10;99.90;;;;;;4966187;28;20462;-73
2020/12/10 02:03:36;;;;;;;35.63;21.87;;;-1.10;99.90;;;;;;4963361;28;20467;-74
2020/12/10 02:06:03;;;;;;;36.53;22.90;;;-1.00;99.90;;;;;;4962458;28;20469;-73
2020/12/10 02:08:30;;;;;;;39.27;23.40;;;-1.00;99.90;;;;;;4966115;28;20470;-73
2020/12/10 02:10:56;;;;;;;33.63;23.47;;;-1.00;99.90;;;;;;4966823;28;20489;-74
2020/12/10 02:13:24;;;;;;;33.03;22.60;;;-1.10;99.90;;;;;;4965247;28;21012;-73
2020/12/10 02:15:51;;;;;;;34.80;23.00;;;-1.20;99.90;;;;;;4964912;28;20497;-74
2020/12/10 02:18:17;;;;;;;33.23;22.30;;;-1.20;99.90;;;;;;4965088;28;20468;-73
2020/12/10 02:20:44;;;;;;;37.57;23.17;;;-1.10;99.90;;;;;;4966520;28;20989;-74
2020/12/10 02:23:12;;;;;;;35.33;23.20;;;-1.10;99.90;;;;;;4966642;28;20463;-73
2020/12/10 02:25:39;;;;;;;37.23;22.53;;;-1.10;99.90;;;;;;4965348;28;20476;-73
2020/12/10 02:28:10;;;;;;;37.63;22.80;;;-1.10;99.90;;;;;;4965019;28;20837;-75
2020/12/10 02:30:36;;;;;;;37.63;23.27;;;-1.20;99.90;;;;;;4961942;28;20474;-73
2020/12/10 02:33:06;;;;;;;35.87;25.23;;;-1.20;99.90;;;;;;4965241;28;20495;-73
2020/12/10 02:35:34;;;;;;;30.93;22.27;;;-1.20;99.90;;;;;;4962316;28;20848;-73
2020/12/10 02:38:03;;;;;;;35.30;24.90;;;-1.10;99.90;;;;;;4962572;28;20460;-74
2020/12/10 02:40:32;;;;;;;38.83;24.17;;;-1.20;99.90;;;;;;4958473;28;20463;-74
2020/12/10 02:42:58;;;;;;;38.33;25.67;;;-1.20;99.90;;;;;;4961699;28;20812;-74
2020/12/10 02:45:26;;;;;;;36.43;24.77;;;-1.20;99.90;;;;;;4961463;28;21037;-74
2020/12/10 02:47:53;;;;;;;40.13;25.17;;;-1.10;99.90;;;;;;4963744;28;20988;-74
2020/12/10 02:50:20;;;;;;;39.30;26.47;;;-1.10;99.90;;;;;;4960605;28;20470;-74
2020/12/10 02:52:47;;;;;;;47.23;24.80;;;-1.10;99.90;;;;;;4964084;28;20970;-74
2020/12/10 02:55:13;;;;;;;43.73;26.80;;;-1.10;99.90;;;;;;4959288;28;20968;-73
2020/12/10 02:57:42;;;;;;;39.87;25.33;;;-1.20;99.90;;;;;;4962324;28;20476;-74
2020/12/10 03:00:10;;;;;;;41.17;25.90;;;-1.20;99.90;;;;;;4955348;28;20954;-74
2020/12/10 03:02:38;;;;;;;40.73;26.57;;;-1.20;99.90;;;;;;4957327;28;20559;-74
2020/12/10 03:05:04;;;;;;;46.90;27.30;;;-1.20;99.90;;;;;;4961620;28;20611;-73
2020/12/10 03:07:31;;;;;;;45.80;26.77;;;-1.30;99.90;;;;;;4960280;28;20462;-74
2020/12/10 03:09:58;;;;;;;40.77;27.47;;;-1.30;99.90;;;;;;4959037;28;20477;-74
2020/12/10 03:12:24;;;;;;;47.67;27.13;;;-1.30;99.90;;;;;;4960099;28;20869;-73
2020/12/10 03:14:52;;;;;;;46.03;26.10;;;-1.40;99.90;;;;;;4955562;28;21017;-73
2020/12/10 03:17:19;;;;;;;40.10;27.33;;;-1.40;99.90;;;;;;4959554;28;22032;-74
2020/12/10 03:19:45;;;;;;;46.93;27.90;;;-1.40;99.90;;;;;;4957298;28;20463;-73
2020/12/10 03:22:14;;;;;;;46.33;27.67;;;-1.40;99.90;;;;;;4959519;28;20475;-75
2020/12/10 03:24:40;;;;;;;42.63;29.40;;;-1.40;99.90;;;;;;4961527;28;20472;-73
2020/12/10 03:27:06;;;;;;;50.93;28.97;;;-1.40;99.90;;;;;;4963463;28;20812;-74
2020/12/10 03:29:33;;;;;;;64.63;30.23;;;-1.40;99.90;;;;;;4956811;28;20534;-74
2020/12/10 03:32:02;;;;;;;38.40;27.30;;;-1.40;99.90;;;;;;4961942;28;20474;-73
2020/12/10 03:34:28;;;;;;;46.47;27.27;;;-1.40;99.90;;;;;;4962700;28;20479;-73
2020/12/10 03:36:57;;;;;;;40.83;27.97;;;-1.40;99.90;;;;;;4959132;28;20490;-73
2020/12/10 03:39:24;;;;;;;50.10;27.63;;;-1.40;99.90;;;;;;4961602;28;20460;-73
2020/12/10 03:41:52;;;;;;;48.40;27.70;;;-1.40;99.90;;;;;;4960839;28;20498;-73
2020/12/10 03:44:19;;;;;;;50.43;27.47;;;-1.40;99.90;;;;;;4965514;28;20488;-73
2020/12/10 03:46:46;;;;;;;42.40;27.43;;;-1.30;99.90;;;;;;4966433;28;20569;-73
2020/12/10 03:49:13;;;;;;;52.57;28.80;;;-1.40;99.90;;;;;;4966905;28;20988;-74
2020/12/10 03:51:40;;;;;;;51.00;26.90;;;-1.40;99.90;;;;;;4964418;28;20470;-74
2020/12/10 03:54:07;;;;;;;48.17;28.20;;;-1.40;99.90;;;;;;4966428;28;20510;-74
2020/12/10 03:56:34;;;;;;;47.97;27.63;;;-1.40;99.90;;;;;;4966040;28;20474;-73
2020/12/10 03:59:00;;;;;;;47.83;29.67;;;-1.40;99.90;;;;;;4967290;28;21040;-73
2020/12/10 04:01:27;;;;;;;47.33;29.60;;;-1.50;99.90;;;;;;4964703;28;20468;-73
2020/12/10 04:03:54;;;;;;;56.67;29.20;;;-1.50;99.90;;;;;;4964746;28;20475;-74
2020/12/10 04:06:21;;;;;;;39.20;27.83;;;-1.50;99.90;;;;;;4968551;28;20503;-74
2020/12/10 04:08:48;;;;;;;41.80;28.73;;;-1.50;99.90;;;;;;4964551;28;20460;-74
2020/12/10 04:11:14;;;;;;;46.77;28.53;;;-1.40;99.90;;;;;;4966289;28;20478;-73
2020/12/10 04:13:41;;;;;;;39.87;26.93;;;-1.40;99.90;;;;;;4964580;28;20944;-74
2020/12/10 04:16:07;;;;;;;51.57;30.60;;;-1.40;99.90;;;;;;4969419;28;20476;-73
2020/12/10 04:18:38;;;;;;;44.83;27.73;;;-1.50;99.90;;;;;;4968196;28;20463;-73
2020/12/10 04:21:05;;;;;;;50.17;29.20;;;-1.50;99.90;;;;;;4963884;28;20483;-73
2020/12/10 04:23:32;;;;;;;40.60;28.03;;;-1.50;99.90;;;;;;4966187;28;21007;-73
2020/12/10 04:25:58;;;;;;;61.33;29.67;;;-1.50;99.90;;;;;;4962946;28;20459;-73
2020/12/10 04:28:25;;;;;;;40.60;27.97;;;-1.50;99.90;;;;;;4960794;28;20989;-73
2020/12/10 04:30:51;;;;;;;47.87;29.23;;;-1.50;99.90;;;;;;4961724;28;20471;-74
2020/12/10 04:33:17;;;;;;;48.13;29.33;;;-1.60;99.90;;;;;;4962109;28;20488;-74
2020/12/10 04:35:44;;;;;;;56.83;30.40;;;-1.60;99.90;;;;;;4965009;28;20479;-73
2020/12/10 04:38:11;;;;;;;48.03;28.33;;;-1.60;99.90;;;;;;4960129;28;20460;-74
2020/12/10 04:40:38;;;;;;;44.57;28.40;;;-1.60;99.90;;;;;;4961679;28;20473;-73
2020/12/10 04:43:06;;;;;;;46.70;29.00;;;-1.60;99.90;;;;;;4960714;28;20459;-72
2020/12/10 04:45:32;;;;;;;45.40;28.20;;;-1.60;99.90;;;;;;4969982;28;20466;-73
2020/12/10 04:48:00;;;;;;;42.90;29.10;;;-1.60;99.90;;;;;;4963613;28;20820;-73
2020/12/10 04:50:29;;;;;;;48.17;28.80;;;-1.60;99.90;;;;;;4962355;28;20925;-73
2020/12/10 04:52:57;;;;;;;42.97;28.43;;;-1.60;99.90;;;;;;4959838;28;20468;-73
2020/12/10 04:55:26;;;;;;;47.43;29.87;;;-1.60;99.90;;;;;;4963675;28;20460;-74
2020/12/10 04:57:54;;;;;;;42.47;27.53;;;-1.60;99.90;;;;;;4956581;28;20896;-73
2020/12/10 05:00:21;;;;;;;54.37;30.67;;;-1.60;99.90;;;;;;4960509;28;20532;-73
2020/12/10 05:02:48;;;;;;;47.20;31.27;;;-1.60;99.90;;;;;;4959146;28;20463;-73
2020/12/10 05:05:26;;;;;;;41.53;28.00;;;-1.60;99.90;;;;;;4966929;28;20486;-74
2020/12/10 05:07:53;;;;;;;48.47;29.63;;;-1.60;99.90;;;;;;4967377;28;20553;-73
2020/12/10 05:10:19;;;;;;;44.10;29.60;;;-1.60;99.90;;;;;;4967222;28;20464;-74
2020/12/10 05:12:46;;;;;;;50.60;30.13;;;-1.50;99.90;;;;;;4965782;28;20967;-73
2020/12/10 05:15:16;;;;;;;51.67;29.37;;;-1.50;99.90;;;;;;4964055;28;20494;-72
2020/12/10 05:17:43;;;;;;;58.43;30.33;;;-1.50;99.90;;;;;;4962317;28;20468;-72
2020/12/10 05:20:10;;;;;;;48.80;30.50;;;-1.60;99.90;;;;;;4965048;28;20939;-73
2020/12/10 05:22:45;;;;;;;51.50;29.07;;;-1.70;99.90;;;;;;4966511;28;20825;-73
2020/12/10 05:25:11;;;;;;;44.83;29.23;;;-1.60;99.90;;;;;;4965961;28;20482;-73
2020/12/10 05:27:38;;;;;;;53.73;30.83;;;-1.60;99.90;;;;;;4964877;28;20830;-74
2020/12/10 05:30:05;;;;;;;46.23;27.20;;;-1.70;99.90;;;;;;4966163;28;20505;-73
2020/12/10 05:32:37;;;;;;;48.03;30.00;;;-1.80;99.90;;;;;;4965491;28;20489;-73
2020/12/10 05:35:21;;;;;;;40.43;27.60;;;-1.90;99.90;;;;;;4964307;28;20490;-74
2020/12/10 05:37:49;;;;;;;43.90;29.53;;;-2.00;99.90;;;;;;4966960;28;20457;-73
2020/12/10 05:40:16;;;;;;;44.20;29.07;;;-2.00;99.90;;;;;;4964571;28;20468;-74
2020/12/10 05:42:44;;;;;;;47.33;29.07;;;-2.00;99.90;;;;;;4964298;28;20474;-73
2020/12/10 05:45:13;;;;;;;51.37;31.90;;;-2.00;99.90;;;;;;4960274;28;20463;-74
2020/12/10 05:47:43;;;;;;;48.83;30.97;;;-2.10;99.90;;;;;;4962455;28;20463;-73
2020/12/10 05:50:11;;;;;;;38.83;27.60;;;-2.10;99.90;;;;;;4967279;28;20981;-73
2020/12/10 05:52:42;;;;;;;44.53;30.13;;;-2.20;99.90;;;;;;4965749;28;20466;-74
2020/12/10 05:55:08;;;;;;;41.37;29.40;;;-2.10;99.90;;;;;;4965438;28;20592;-74
2020/12/10 05:57:34;;;;;;;48.57;30.67;;;-2.10;99.90;;;;;;4965675;28;20487;-74
2020/12/10 06:00:04;;;;;;;40.07;29.33;;;-2.10;99.90;;;;;;4964031;28;20468;-73
2020/12/10 06:02:31;;;;;;;46.23;28.63;;;-2.10;99.90;;;;;;4961853;28;20465;-73
2020/12/10 06:04:59;;;;;;;43.17;28.57;;;-2.00;99.90;;;;;;4967291;28;20685;-73
2020/12/10 06:07:26;;;;;;;38.70;28.27;;;-1.90;99.90;;;;;;4965491;28;20830;-73
2020/12/10 06:09:52;;;;;;;50.43;30.37;;;-1.90;99.90;;;;;;4965606;28;20829;-74
2020/12/10 06:12:23;;;;;;;43.13;27.40;;;-1.80;99.90;;;;;;4962028;28;20818;-73
2020/12/10 06:14:51;;;;;;;67.27;30.00;;;-1.90;99.90;;;;;;4965066;28;21023;-73
2020/12/10 06:17:18;;;;;;;46.30;28.00;;;-1.80;99.90;;;;;;4965967;28;20464;-73
2020/12/10 06:19:45;;;;;;;49.70;30.03;;;-1.90;99.90;;;;;;4966692;28;20464;-74
2020/12/10 06:22:27;;;;;;;54.73;30.77;;;-1.90;99.90;;;;;;4963866;28;20468;-74
2020/12/10 06:24:54;;;;;;;45.53;29.67;;;-1.90;99.90;;;;;;4962179;28;20466;-74
2020/12/10 06:27:27;;;;;;;42.77;28.73;;;-1.90;99.90;;;;;;4965023;28;20522;-74
2020/12/10 06:30:16;;;;;;;51.90;30.30;;;-1.80;99.90;;;;;;4966087;28;20487;-74
2020/12/10 06:32:46;;;;;;;42.10;29.70;;;-1.80;99.90;;;;;;4964615;28;20459;-74
2020/12/10 06:35:26;;;;;;;54.63;30.30;;;-1.90;99.90;;;;;;4966013;28;20581;-74
2020/12/10 06:37:53;;;;;;;48.93;30.03;;;-1.90;99.90;;;;;;4965308;28;20461;-73
2020/12/10 06:40:32;;;;;;;56.17;29.27;;;-2.00;99.90;;;;;;4964742;28;20978;-74
2020/12/10 06:42:59;;;;;;;50.80;31.10;;;-2.00;99.90;;;;;;4960383;28;20456;-74
2020/12/10 06:45:32;;;;;;;50.00;28.83;;;-1.90;99.90;;;;;;4965052;28;20467;-74
2020/12/10 06:47:59;;;;;;;48.57;29.20;;;-1.90;99.90;;;;;;4964617;28;20526;-73
2020/12/10 06:50:26;;;;;;;46.13;26.87;;;-1.80;99.90;;;;;;4964882;28;20764;-74
2020/12/10 06:53:14;;;;;;;51.97;29.60;;;-1.80;99.90;;;;;;4964607;28;20460;-74
2020/12/10 06:56:07;;;;;;;57.23;30.53;;;-1.80;99.90;;;;;;4960634;28;20474;-74
2020/12/10 06:58:51;;;;;;;49.23;28.93;;;-1.80;99.90;;;;;;4955176;28;20463;-74
2020/12/10 07:01:22;;;;;;;55.13;30.20;;;-1.80;99.90;;;;;;4959632;28;20565;-74
2020/12/10 07:03:51;;;;;;;51.80;31.00;;;-1.80;99.90;;;;;;4959763;28;20466;-74
2020/12/10 07:06:19;;;;;;;53.87;30.70;;;-1.80;99.90;;;;;;4961798;28;21201;-74
2020/12/10 07:09:01;;;;;;;44.47;29.60;;;-1.80;99.90;;;;;;4964902;28;20463;-73
2020/12/10 07:11:34;;;;;;;49.40;29.57;;;-1.80;99.90;;;;;;4963962;28;20467;-74
2020/12/10 07:14:02;;;;;;;51.53;28.43;;;-1.80;99.90;;;;;;4966854;28;20493;-74
2020/12/10 07:16:33;;;;;;;51.57;29.97;;;-1.90;99.90;;;;;;4968140;28;20549;-74
2020/12/10 07:19:00;;;;;;;47.73;29.40;;;-1.90;99.90;;;;;;4968092;28;20541;-74
2020/12/10 07:21:27;;;;;;;50.47;31.30;;;-1.90;99.90;;;;;;4968101;28;20465;-74
2020/12/10 07:23:54;;;;;;;57.43;31.17;;;-1.90;99.90;;;;;;4969114;28;20471;-75
2020/12/10 07:26:22;;;;;;;53.07;31.13;;;-1.80;99.90;;;;;;4967555;28;20522;-75
2020/12/10 07:28:51;;;;;;;42.60;28.80;;;-1.90;99.90;;;;;;4968601;28;20489;-74
2020/12/10 07:31:18;;;;;;;51.70;30.33;;;-2.00;99.90;;;;;;4967152;28;20486;-74
2020/12/10 07:33:45;;;;;;;43.37;29.63;;;-2.00;99.90;;;;;;4969369;28;20498;-75
2020/12/10 07:36:12;;;;;;;49.60;33.67;;;-2.10;99.90;;;;;;4964402;28;20520;-75
2020/12/10 07:38:44;;;;;;;44.20;30.20;;;-2.10;99.90;;;;;;4970259;28;20480;-75
2020/12/10 07:41:11;;;;;;;44.90;27.87;;;-2.10;99.90;;;;;;4963520;28;20932;-74
2020/12/10 07:43:45;;;;;;;43.53;30.60;;;-2.10;99.90;;;;;;4965401;28;20486;-74
2020/12/10 07:46:13;;;;;;;47.20;30.87;;;-2.00;99.90;;;;;;4964925;28;20463;-74
2020/12/10 07:48:40;;;;;;;48.40;31.03;;;-1.80;99.90;;;;;;4964294;28;20471;-74
2020/12/10 07:51:06;;;;;;;48.90;29.50;;;-1.90;99.90;;;;;;4970617;28;20517;-73
2020/12/10 07:53:33;;;;;;;49.13;30.20;;;-1.90;99.90;;;;;;4963760;28;20487;-74
2020/12/10 07:56:01;;;;;;;52.10;31.23;;;-1.90;99.90;;;;;;4965268;28;20459;-74
2020/12/10 07:58:40;;;;;;;49.10;30.43;;;-1.80;99.90;;;;;;4964146;28;20467;-74
2020/12/10 08:01:08;;;;;;;45.87;29.57;;;-1.80;99.90;;;;;;4964512;28;20793;-73
2020/12/10 08:03:50;;;;;;;52.70;29.97;;;-1.80;99.90;;;;;;4967529;28;20471;-74
2020/12/10 08:06:17;;;;;;;57.80;30.60;;;-1.90;99.90;;;;;;4968740;28;20474;-74
2020/12/10 08:08:46;;;;;;;42.33;29.30;;;-1.90;99.90;;;;;;4968818;28;20452;-74
2020/12/10 08:11:15;;;;;;;48.53;29.50;;;-1.90;99.90;;;;;;4967629;28;20533;-74
2020/12/10 08:13:55;;;;;;;41.80;29.73;;;-1.90;99.90;;;;;;4968734;28;20775;-75
2020/12/10 08:16:23;;;;;;;44.87;30.00;;;-1.90;99.90;;;;;;4965222;28;20467;-75
2020/12/10 08:18:50;;;;;;;47.20;29.10;;;-1.80;99.90;;;;;;4966448;28;20460;-75
2020/12/10 08:21:32;;;;;;;51.40;28.83;;;-1.90;99.90;;;;;;4969790;28;20464;-75
2020/12/10 08:23:59;;;;;;;42.37;27.73;;;-1.80;99.90;;;;;;4966579;28;20472;-74
2020/12/10 08:26:25;;;;;;;50.90;29.70;;;-1.80;99.90;;;;;;4965454;28;20524;-75
2020/12/10 08:28:54;;;;;;;43.07;29.33;;;-1.80;99.90;;;;;;4966498;28;20481;-74
2020/12/10 08:31:22;;;;;;;44.87;28.03;;;-1.70;99.90;;;;;;4963201;28;20458;-75
2020/12/10 08:33:48;;;;;;;40.37;28.93;;;-1.60;99.90;;;;;;4967101;28;20493;-74
2020/12/10 08:36:25;;;;;;;42.77;28.30;;;-1.60;99.90;;;;;;4961317;28;20582;-75
2020/12/10 08:38:52;;;;;;;38.90;29.00;;;-1.50;99.90;;;;;;4969223;28;20462;-75
2020/12/10 08:41:25;;;;;;;41.53;27.43;;;-1.40;99.90;;;;;;4967950;28;20463;-74
2020/12/10 08:43:57;;;;;;;41.63;30.33;;;-1.30;99.90;;;;;;4966895;28;20570;-74
2020/12/10 08:46:25;;;;;;;41.20;28.60;;;-1.20;99.90;;;;;;4964951;28;20471;-75
2020/12/10 08:48:54;;;;;;;49.77;30.80;;;-1.20;99.90;;;;;;4968526;28;20467;-74
2020/12/10 08:51:21;;;;;;;50.40;30.20;;;-1.10;99.90;;;;;;4965264;28;20553;-74
2020/12/10 08:53:49;;;;;;;52.87;30.00;;;-1.00;99.90;;;;;;4968720;28;20525;-74
2020/12/10 08:56:22;;;;;;;57.90;31.83;;;-0.90;99.90;;;;;;4966421;28;20525;-73
2020/12/10 08:58:49;;;;;;;54.70;29.87;;;-0.80;99.90;;;;;;4962772;28;20878;-74
2020/12/10 09:01:16;;;;;;;47.33;31.10;;;-0.70;99.90;;;;;;4966769;28;20522;-73
2020/12/10 09:03:45;;;;;;;48.07;30.60;;;-0.60;99.90;;;;;;4966873;28;20656;-73
2020/12/10 09:06:11;;;;;;;50.87;31.30;;;-0.60;99.90;;;;;;4966121;28;20470;-73
2020/12/10 09:08:38;;;;;;;58.40;31.27;;;-0.50;99.90;;;;;;4968056;28;20975;-73
2020/12/10 09:11:04;;;;;;;50.57;31.10;;;-0.40;99.90;;;;;;4960564;28;20488;-73
2020/12/10 09:13:31;;;;;;;54.10;31.00;;;-0.30;99.90;;;;;;4969355;28;20464;-73
2020/12/10 09:15:57;;;;;;;53.30;32.20;;;-0.30;99.90;;;;;;4968906;28;20470;-73
2020/12/10 09:18:24;;;;;;;50.97;31.30;;;-0.20;99.90;;;;;;4962669;28;20497;-73
2020/12/10 09:20:52;;;;;;;57.30;34.67;;;-0.10;99.90;;;;;;4965527;28;20805;-73
2020/12/10 09:23:20;;;;;;;56.80;31.87;;;0.00;99.90;;;;;;4965014;28;20465;-73
2020/12/10 09:25:46;;;;;;;53.20;31.93;;;0.10;99.90;;;;;;4967895;28;20811;-73
2020/12/10 09:28:13;;;;;;;67.20;34.47;;;0.20;99.90;;;;;;4968174;28;20492;-73
2020/12/10 09:30:40;;;;;;;53.10;32.83;;;0.30;99.90;;;;;;4964628;28;20474;-73
2020/12/10 09:33:06;;;;;;;55.03;33.00;;;0.40;99.90;;;;;;4967227;28;20494;-73
2020/12/10 09:35:33;;;;;;;57.50;34.47;;;0.50;99.90;;;;;;4964371;28;20493;-72
2020/12/10 09:38:03;;;;;;;52.20;34.40;;;0.50;99.90;;;;;;4961922;28;20463;-73
2020/12/10 09:40:30;;;;;;;58.87;36.80;;;0.60;99.90;;;;;;4966713;28;20451;-73
2020/12/10 09:42:56;;;;;;;47.47;33.73;;;0.60;99.90;;;;;;4962428;28;20832;-73
2020/12/10 09:45:23;;;;;;;65.50;34.73;;;0.70;99.90;;;;;;4966570;28;20474;-74
2020/12/10 09:47:51;;;;;;;51.70;32.60;;;0.70;99.90;;;;;;4969190;28;20628;-74
2020/12/10 09:50:24;;;;;;;52.70;34.30;;;0.80;99.90;;;;;;4961028;28;20504;-74
2020/12/10 09:53:01;;;;;;;53.93;34.40;;;0.80;99.90;;;;;;4965781;28;20545;-74
2020/12/10 09:55:48;;;;;;;54.93;35.73;;;0.80;99.90;;;;;;4966477;28;20488;-74
2020/12/10 09:58:15;;;;;;;47.90;34.00;;;0.80;99.90;;;;;;4964043;28;20481;-73
2020/12/10 10:00:41;;;;;;;62.33;37.10;;;1.00;99.90;;;;;;4964916;28;20465;-73
2020/12/10 10:03:07;;;;;;;55.70;36.87;;;1.10;99.90;;;;;;4967426;28;20954;-74
2020/12/10 10:05:34;;;;;;;56.07;36.43;;;1.00;99.90;;;;;;4961338;28;20466;-73
2020/12/10 10:08:01;;;;;;;59.70;37.10;;;1.00;99.90;;;;;;4964694;28;20471;-73
2020/12/10 10:10:28;;;;;;;59.73;37.93;;;1.00;99.90;;;;;;4966563;28;20509;-73
2020/12/10 10:12:55;;;;;;;57.50;37.50;;;1.00;99.90;;;;;;4966205;28;20461;-72
2020/12/10 10:15:23;;;;;;;55.23;39.23;;;1.00;99.90;;;;;;4967020;28;20491;-72
2020/12/10 10:17:50;;;;;;;53.57;36.77;;;1.00;99.90;;;;;;4968542;28;20465;-73
2020/12/10 10:20:17;;;;;;;62.87;38.70;;;1.00;99.90;;;;;;4963628;28;20470;-72
2020/12/10 10:22:44;;;;;;;55.83;38.27;;;1.10;99.90;;;;;;4965011;28;20463;-72
2020/12/10 10:25:10;;;;;;;57.53;38.17;;;1.10;99.90;;;;;;4963663;28;20497;-72
2020/12/10 10:27:39;;;;;;;55.20;37.97;;;1.10;99.90;;;;;;4959644;28;20467;-71
2020/12/10 10:30:06;;;;;;;60.37;39.10;;;1.10;99.90;;;;;;4964294;28;20962;-72
2020/12/10 10:32:32;;;;;;;57.63;39.23;;;1.10;99.90;;;;;;4966735;28;20465;-72
2020/12/10 10:34:59;;;;;;;75.90;41.57;;;1.10;99.90;;;;;;4961856;28;20506;-73
2020/12/10 10:37:25;;;;;;;58.53;41.73;;;1.20;99.90;;;;;;4965581;28;20498;-73
2020/12/10 10:39:51;;;;;;;57.00;40.60;;;1.10;99.90;;;;;;4963247;28;20484;-72
2020/12/10 10:42:18;;;;;;;60.90;40.30;;;1.30;99.90;;;;;;4966020;28;20478;-73
2020/12/10 10:44:45;;;;;;;63.33;39.53;;;1.40;99.90;;;;;;4966082;28;20478;-73
2020/12/10 10:47:12;;;;;;;62.67;42.57;;;1.40;99.90;;;;;;4964918;28;20475;-72
2020/12/10 10:49:38;;;;;;;57.40;40.37;;;1.40;99.90;;;;;;4963232;28;21140;-72
2020/12/10 10:52:05;;;;;;;62.90;41.80;;;1.50;99.90;;;;;;4964871;28;20467;-73
2020/12/10 10:54:31;;;;;;;62.70;40.43;;;1.70;99.90;;;;;;4965627;28;20487;-73
2020/12/10 10:56:57;;;;;;;65.43;41.90;;;1.70;99.90;;;;;;4962401;28;20809;-73
2020/12/10 10:59:24;;;;;;;65.53;40.60;;;1.70;99.90;;;;;;4962684;28;20976;-72
2020/12/10 11:01:54;;;;;;;58.27;40.17;;;1.70;99.90;;;;;;4962714;28;20553;-73
2020/12/10 11:04:21;;;;;;;69.87;39.67;;;1.80;99.90;;;;;;4962612;28;20552;-72
2020/12/10 11:06:50;;;;;;;67.97;39.87;;;1.90;99.90;;;;;;4963614;28;20478;-71
2020/12/10 11:09:17;;;;;;;57.73;39.00;;;1.80;99.90;;;;;;4958572;28;20473;-73
2020/12/10 11:11:44;;;;;;;55.43;39.47;;;1.80;99.90;;;;;;4963727;28;20467;-72
2020/12/10 11:14:10;;;;;;;59.90;39.93;;;1.80;99.90;;;;;;4962995;28;20494;-71
2020/12/10 11:16:36;;;;;;;59.97;41.20;;;1.80;99.90;;;;;;4957318;28;20469;-72
2020/12/10 11:19:04;;;;;;;56.40;40.83;;;1.70;99.90;;;;;;4957386;28;20467;-72
2020/12/10 11:21:30;;;;;;;53.70;36.80;;;1.60;99.90;;;;;;4963414;28;20466;-72
2020/12/10 11:23:57;;;;;;;60.63;39.73;;;1.60;99.90;;;;;;4960921;28;20578;-72
2020/12/10 11:26:23;;;;;;;59.83;38.07;;;1.50;99.90;;;;;;4956296;28;20469;-72
2020/12/10 11:28:50;;;;;;;54.43;38.50;;;1.50;99.90;;;;;;4958720;28;20489;-72
2020/12/10 11:31:16;;;;;;;61.03;37.70;;;1.50;99.90;;;;;;4963980;28;20465;-72
2020/12/10 11:33:43;;;;;;;67.93;39.77;;;1.50;99.90;;;;;;4959419;28;20474;-72
2020/12/10 11:36:10;;;;;;;56.17;40.13;;;1.60;99.90;;;;;;4961057;28;20498;-72
2020/12/10 11:38:37;;;;;;;55.43;40.07;;;1.50;99.90;;;;;;4964407;28;20466;-72
2020/12/10 11:41:03;;;;;;;64.93;39.87;;;1.60;99.90;;;;;;4964431;28;20466;-72
2020/12/10 11:43:30;;;;;;;59.53;38.97;;;1.70;99.90;;;;;;4964914;28;20461;-72
2020/12/10 11:45:57;;;;;;;48.73;37.70;;;1.80;99.90;;;;;;4973339;28;20462;-72
2020/12/10 11:48:24;;;;;;;50.80;37.23;;;1.90;99.90;;;;;;4959323;28;20481;-72
2020/12/10 11:50:50;;;;;;;54.93;38.80;;;1.80;99.90;;;;;;4960064;28;20593;-72
2020/12/10 11:53:18;;;;;;;56.03;41.37;;;1.80;99.90;;;;;;4962194;28;20465;-73
2020/12/10 11:55:44;;;;;;;55.30;39.67;;;1.90;99.90;;;;;;4960336;28;20495;-73
2020/12/10 11:58:12;;;;;;;63.63;40.47;;;1.90;99.90;;;;;;4962249;28;20546;-73
2020/12/10 12:00:38;;;;;;;62.77;40.37;;;1.80;99.90;;;;;;4969336;28;20555;-73
2020/12/10 12:03:06;;;;;;;51.30;40.40;;;1.90;99.90;;;;;;4967839;28;20808;-73
2020/12/10 12:05:32;;;;;;;73.37;40.77;;;2.00;99.90;;;;;;4968792;28;20852;-73
2020/12/10 12:07:58;;;;;;;53.83;38.60;;;2.00;99.90;;;;;;4967082;28;20458;-73
2020/12/10 12:10:26;;;;;;;50.77;38.60;;;2.10;99.90;;;;;;4967164;28;20466;-72
2020/12/10 12:12:52;;;;;;;62.13;40.53;;;2.10;99.90;;;;;;4964295;28;20476;-73
2020/12/10 12:15:18;;;;;;;60.93;39.97;;;2.00;99.90;;;;;;4966741;28;20500;-73
2020/12/10 12:17:45;;;;;;;56.87;39.23;;;2.00;99.90;;;;;;4966700;28;20458;-73
2020/12/10 12:20:12;;;;;;;52.90;38.93;;;1.90;99.90;;;;;;4968414;28;20533;-73
2020/12/10 12:22:39;;;;;;;53.53;38.17;;;1.90;99.90;;;;;;4968322;28;20474;-73
2020/12/10 12:25:05;;;;;;;49.57;37.57;;;1.90;99.90;;;;;;4968079;28;20459;-73
2020/12/10 12:27:32;;;;;;;59.10;38.77;;;2.00;99.90;;;;;;4968738;28;20478;-73
2020/12/10 12:29:59;;;;;;;44.53;37.60;;;2.00;99.90;;;;;;4966858;28;20493;-73
2020/12/10 12:32:25;;;;;;;52.40;36.53;;;2.00;99.90;;;;;;4967233;28;20954;-73
2020/12/10 12:34:53;;;;;;;57.00;38.70;;;2.20;99.90;;;;;;4967579;28;21004;-73